Terminal Aerodrome Forecast
Issued by NWS

Home | Current Version | Previous Version | Text Only | Print | Product List | Glossary Off
Versions: 1 2 3 4 5 6 7 8 9 10 11 12 13

000
FTUS43 KBIS 251720
TAFJMS
TAF
KJMS 251720Z 2518/2618 01007KT P6SM SCT200
     FM252000 05009KT P6SM VCSH FEW045 SCT150
     FM260000 17008KT P6SM FEW150
     FM260700 26007KT P6SM SCT180=

USA.gov is the U.S. government's official web portal to all federal, state and local government web resources and services.